Magdagaci, Russia
Current Conditions -  °F | °C
As of 1:00 AM on Saturday 20 Dec 2014 (Local Time) from UHBB Reporting Station
Clear Clear  
Wind Chill: -33°   Ceiling: Unl
Heat Index: -20°   Visibility: 6mi
Dew Point: -22°   Wind: 4mph
Humidity: 91%   Direction: NA
Pressure: 30.12"   Gusts: NA
Location:  53.47°N, 125.82°E
Report Text: UHBB 191600Z VRB02MPS CAVOK M29/M30 Q1020 NOSIG RMK QFE748/099736412050
Loading
Personal Weather Stations






























Interactive Weather Map New forecast layout! Learn more

10-Day Weather Forecast

Advertisements
Track Severe Weather on mobile